LST weather

Launceston Airport
Launceston, Tasmania, Australia

Public forecast

Using degrees Celsius for public forecast. Weather courtesy of forecast.io.

METAR (pilot weather report)

Retrieved 2019/03/20 23:30 UTC (0 seconds ago):

YMLT 202330Z AUTO 17005KT 9999 // OVC011 18/15 Q1020 RF00.0/000.0

TAF (pilot weather forecast)

Forecast is more than 12 hours old.

Retrieved 2019/03/20 06:36 UTC (17 hours ago):

TAF YMLT 200528Z 2006/2106 15008KT 9999 SCT050 FM200900 34012KT 9999 SCT030 FM201200 33006KT 9999 -DZ SCT005 BKN010 FM210100 16005KT 9999 FEW015 BKN025